Time;durP1;ratioP1;P1;durP2;ratioP2;P2;SDS_P1;SDS_P2;PMS_P1;PMS_P2;Temp;Humidity;BMP_temperature;BMP_pressure;BME280_temperature;BME280_humidity;BME280_pressure;Samples;Min_cycle;Max_cycle;Signal;HPM_P1;HPM_P2
2022/09/17 00:01:37;;;;;;;0.50;0.20;;;12.20;13.10;;;;;;5136990;27;20668;-74
2022/09/17 00:04:05;;;;;;;0.30;0.20;;;12.10;20.80;;;;;;5135156;27;20452;-74
2022/09/17 00:06:34;;;;;;;0.93;0.20;;;11.90;10.30;;;;;;5136855;27;20444;-74
2022/09/17 00:09:01;;;;;;;0.40;0.20;;;11.80;18.00;;;;;;5134344;27;20458;-74
2022/09/17 00:11:30;;;;;;;0.40;0.20;;;11.90;40.40;;;;;;5135067;27;20471;-74
2022/09/17 00:13:59;;;;;;;0.30;0.20;;;11.80;38.00;;;;;;5132291;27;20879;-74
2022/09/17 00:16:28;;;;;;;0.30;0.20;;;11.80;30.60;;;;;;5135060;27;20539;-74
2022/09/17 00:18:57;;;;;;;0.40;0.30;;;11.60;46.70;;;;;;5133211;27;20451;-74
2022/09/17 00:21:25;;;;;;;1.07;0.20;;;11.80;40.80;;;;;;5134869;27;20471;-74
2022/09/17 00:23:54;;;;;;;0.50;0.20;;;11.70;11.50;;;;;;5136200;27;20454;-74
2022/09/17 00:26:21;;;;;;;0.40;0.10;;;11.70;41.10;;;;;;5138051;27;20463;-74
2022/09/17 00:28:50;;;;;;;0.47;0.20;;;11.60;10.00;;;;;;5135238;27;20451;-74
2022/09/17 00:31:17;;;;;;;0.40;0.20;;;11.60;43.20;;;;;;5138880;27;20454;-74
2022/09/17 00:33:44;;;;;;;1.70;0.30;;;11.50;15.60;;;;;;5137556;27;20475;-74
2022/09/17 00:36:12;;;;;;;0.30;0.20;;;11.50;48.00;;;;;;5139157;27;20875;-74
2022/09/17 00:38:39;;;;;;;0.40;0.20;;;11.60;62.90;;;;;;5136818;27;20882;-74
2022/09/17 00:41:07;;;;;;;0.40;0.20;;;11.60;33.00;;;;;;5137711;27;20494;-74
2022/09/17 00:43:41;;;;;;;0.30;0.17;;;11.70;41.10;;;;;;5136823;27;20947;-74
2022/09/17 00:46:20;;;;;;;0.40;0.20;;;11.90;26.60;;;;;;5138798;27;20736;-74
2022/09/17 00:48:48;;;;;;;0.40;0.20;;;12.10;4.80;;;;;;5136457;27;20451;-74
2022/09/17 00:51:20;;;;;;;0.50;0.17;;;12.20;15.80;;;;;;5138282;27;20745;-74
2022/09/17 00:53:47;;;;;;;0.57;0.20;;;12.20;1.00;;;;;;5136724;27;20745;-74
2022/09/17 00:56:19;;;;;;;0.70;0.30;;;12.00;1.00;;;;;;5138039;27;20886;-74
2022/09/17 00:58:47;;;;;;;0.40;0.20;;;12.00;6.60;;;;;;5135991;27;20452;-74
2022/09/17 01:01:14;;;;;;;0.40;0.20;;;11.70;18.90;;;;;;5137722;28;20475;-74
2022/09/17 01:03:41;;;;;;;0.57;0.20;;;11.60;43.50;;;;;;5135258;28;20874;-74
2022/09/17 01:06:16;;;;;;;0.50;0.20;;;11.60;21.40;;;;;;5136706;28;20447;-74
2022/09/17 01:08:58;;;;;;;0.37;0.20;;;11.50;41.60;;;;;;5134455;28;20455;-74
2022/09/17 01:11:46;;;;;;;0.40;0.20;;;11.50;51.50;;;;;;5137796;27;20451;-73
2022/09/17 01:14:48;;;;;;;0.30;0.20;;;11.70;32.80;;;;;;5136836;27;20779;-74
2022/09/17 01:17:23;;;;;;;0.37;0.20;;;11.60;30.20;;;;;;5135900;27;20537;-74
2022/09/17 01:20:18;;;;;;;0.40;0.20;;;11.50;33.30;;;;;;5137430;28;20435;-74
2022/09/17 01:22:59;;;;;;;0.43;0.20;;;11.30;27.00;;;;;;5136054;28;20956;-74
2022/09/17 01:25:38;;;;;;;1.63;0.20;;;11.20;54.90;;;;;;5137636;28;20440;-74
2022/09/17 01:28:39;;;;;;;0.83;0.20;;;11.20;55.40;;;;;;5135222;28;20758;-74
2022/09/17 01:31:34;;;;;;;0.40;0.20;;;11.30;89.70;;;;;;5137632;27;20474;-74
2022/09/17 01:34:11;;;;;;;0.50;0.20;;;11.30;80.00;;;;;;5117310;28;20464;-74
2022/09/17 01:36:49;;;;;;;0.30;0.20;;;11.30;63.40;;;;;;5137602;28;20454;-74
2022/09/17 01:39:28;;;;;;;0.50;0.20;;;11.20;46.60;;;;;;5137297;27;20930;-74
2022/09/17 01:42:00;;;;;;;0.30;0.20;;;11.00;52.30;;;;;;5139179;27;20486;-74
2022/09/17 01:44:33;;;;;;;0.40;0.20;;;10.90;89.60;;;;;;5141278;27;20447;-74
2022/09/17 01:47:09;;;;;;;0.53;0.20;;;11.10;99.90;;;;;;5139717;27;20534;-74
2022/09/17 01:49:38;;;;;;;0.60;0.20;;;11.30;95.60;;;;;;5141183;27;20522;-74
2022/09/17 01:52:06;;;;;;;0.40;0.20;;;11.40;81.70;;;;;;5139000;27;20538;-75
2022/09/17 01:54:37;;;;;;;0.73;0.20;;;11.50;68.30;;;;;;5141395;27;20444;-74
2022/09/17 01:57:09;;;;;;;0.40;0.20;;;11.50;39.20;;;;;;5137804;27;20467;-74
2022/09/17 01:59:41;;;;;;;0.50;0.20;;;11.60;49.70;;;;;;5140588;27;20446;-74
2022/09/17 02:02:14;;;;;;;0.40;0.20;;;11.70;36.70;;;;;;5139287;27;20495;-74
2022/09/17 02:04:47;;;;;;;2.20;0.30;;;11.70;23.40;;;;;;5141512;27;20460;-74
2022/09/17 02:07:19;;;;;;;0.50;0.20;;;11.50;20.30;;;;;;5139849;27;20452;-74
2022/09/17 02:09:52;;;;;;;0.57;0.30;;;11.60;31.60;;;;;;5140818;27;20451;-74
2022/09/17 02:12:24;;;;;;;0.40;0.23;;;11.60;36.70;;;;;;5139883;27;20454;-73
2022/09/17 02:14:54;;;;;;;0.63;0.30;;;11.80;10.10;;;;;;5140687;27;20448;-74
2022/09/17 02:17:32;;;;;;;0.50;0.20;;;11.50;20.70;;;;;;5139153;27;20452;-74
2022/09/17 02:20:00;;;;;;;0.47;0.30;;;11.40;28.70;;;;;;5140373;27;20454;-74
2022/09/17 02:22:34;;;;;;;0.40;0.20;;;11.20;40.80;;;;;;5138195;27;20502;-74
2022/09/17 02:25:06;;;;;;;0.40;0.20;;;11.30;68.70;;;;;;5140515;27;20477;-74
2022/09/17 02:27:47;;;;;;;0.40;0.20;;;11.40;49.40;;;;;;5138589;27;20887;-74
2022/09/17 02:30:15;;;;;;;0.50;0.30;;;11.40;49.20;;;;;;5139768;27;20447;-74
2022/09/17 02:32:43;;;;;;;2.40;0.30;;;11.40;54.40;;;;;;5138616;27;20451;-73
2022/09/17 02:35:12;;;;;;;0.83;0.30;;;11.60;60.90;;;;;;5140051;27;20451;-74
2022/09/17 02:37:39;;;;;;;2.20;0.30;;;11.50;10.40;;;;;;5138244;27;20558;-74
2022/09/17 02:40:08;;;;;;;3.40;0.30;;;11.30;22.80;;;;;;5140773;27;20732;-74
2022/09/17 02:42:51;;;;;;;2.13;0.30;;;11.40;50.90;;;;;;5139192;27;20483;-74
2022/09/17 02:45:28;;;;;;;2.67;0.30;;;11.30;27.90;;;;;;5140269;27;20439;-74
2022/09/17 02:48:16;;;;;;;0.50;0.20;;;11.30;34.40;;;;;;5138545;27;20451;-74
2022/09/17 02:51:05;;;;;;;0.67;0.30;;;11.40;25.10;;;;;;5140169;27;20444;-74
2022/09/17 02:53:39;;;;;;;0.63;0.40;;;11.20;21.50;;;;;;5138016;27;20542;-74
2022/09/17 02:56:16;;;;;;;0.67;0.30;;;11.10;44.20;;;;;;5140365;27;20440;-74
2022/09/17 02:58:49;;;;;;;0.40;0.20;;;11.10;58.60;;;;;;5138671;27;20451;-72
2022/09/17 03:01:23;;;;;;;1.10;0.30;;;11.30;70.80;;;;;;5140114;27;20447;-74
2022/09/17 03:03:53;;;;;;;1.27;0.30;;;11.40;45.60;;;;;;5139561;27;20546;-74
2022/09/17 03:06:20;;;;;;;0.43;0.20;;;11.30;30.50;;;;;;5139960;27;20490;-73
2022/09/17 03:08:47;;;;;;;0.40;0.30;;;11.40;37.70;;;;;;5138351;27;20725;-73
2022/09/17 03:11:14;;;;;;;0.50;0.23;;;11.30;35.10;;;;;;5139542;27;20467;-74
2022/09/17 03:13:41;;;;;;;0.43;0.20;;;11.20;31.20;;;;;;5138833;27;20440;-73
2022/09/17 03:16:08;;;;;;;0.40;0.30;;;11.30;61.40;;;;;;5140414;27;20439;-74
2022/09/17 03:18:35;;;;;;;0.47;0.20;;;11.10;34.80;;;;;;5136454;27;20448;-73
2022/09/17 03:21:04;;;;;;;0.40;0.20;;;11.20;53.20;;;;;;5140100;27;20809;-73
2022/09/17 03:23:31;;;;;;;0.77;0.30;;;11.30;57.50;;;;;;5139242;27;20487;-74
2022/09/17 03:25:58;;;;;;;1.00;0.30;;;10.90;37.40;;;;;;5139442;27;20454;-73
2022/09/17 03:28:25;;;;;;;0.63;0.30;;;11.10;72.40;;;;;;5137839;27;20456;-73
2022/09/17 03:30:52;;;;;;;0.60;0.30;;;11.20;40.40;;;;;;5139707;27;20448;-74
2022/09/17 03:33:19;;;;;;;0.40;0.20;;;11.30;35.70;;;;;;5137604;27;20458;-73
2022/09/17 03:35:47;;;;;;;1.03;0.30;;;11.00;19.50;;;;;;5139386;27;20450;-73
2022/09/17 03:38:15;;;;;;;2.70;0.30;;;10.80;46.80;;;;;;5137834;27;20458;-73
2022/09/17 03:40:43;;;;;;;0.77;0.20;;;10.70;50.60;;;;;;5139860;27;20520;-74
2022/09/17 03:43:10;;;;;;;0.47;0.20;;;10.80;90.60;;;;;;5137977;27;20491;-74
2022/09/17 03:45:37;;;;;;;0.50;0.23;;;11.00;75.80;;;;;;5137624;27;20876;-74
2022/09/17 03:48:04;;;;;;;0.70;0.40;;;10.90;62.30;;;;;;5137512;27;20550;-74
2022/09/17 03:50:31;;;;;;;0.40;0.20;;;11.10;56.30;;;;;;5138879;27;20874;-74
2022/09/17 03:52:58;;;;;;;0.83;0.20;;;11.20;35.00;;;;;;5136297;27;20544;-74
2022/09/17 03:55:26;;;;;;;2.87;0.30;;;11.30;39.00;;;;;;5137960;27;20443;-74
2022/09/17 03:57:54;;;;;;;0.47;0.20;;;11.30;30.20;;;;;;5136437;27;20499;-74
2022/09/17 04:00:21;;;;;;;0.40;0.20;;;11.40;11.30;;;;;;5138587;27;20712;-74
2022/09/17 04:02:48;;;;;;;0.40;0.20;;;11.20;12.60;;;;;;5135750;27;20603;-74
2022/09/17 04:05:15;;;;;;;0.70;0.30;;;11.20;25.20;;;;;;5137544;27;20455;-74
2022/09/17 04:07:42;;;;;;;0.40;0.20;;;11.20;25.10;;;;;;5135595;27;20455;-73
2022/09/17 04:10:09;;;;;;;0.47;0.20;;;11.30;14.90;;;;;;5138177;27;20491;-73
2022/09/17 04:12:37;;;;;;;0.40;0.20;;;11.30;15.00;;;;;;5135917;27;20444;-74
2022/09/17 04:15:05;;;;;;;0.47;0.20;;;11.30;16.90;;;;;;5138300;27;20446;-73
2022/09/17 04:17:32;;;;;;;1.23;0.30;;;11.20;5.20;;;;;;5136329;27;20752;-73
2022/09/17 04:19:59;;;;;;;0.93;0.30;;;11.10;16.30;;;;;;5137948;27;20538;-72
2022/09/17 04:22:26;;;;;;;2.50;0.27;;;11.20;26.20;;;;;;5136592;27;20894;-72
2022/09/17 04:24:53;;;;;;;0.30;0.20;;;11.30;2.10;;;;;;5137872;27;20539;-74
2022/09/17 04:27:20;;;;;;;0.30;0.20;;;11.00;1.00;;;;;;5137258;27;20462;-75
2022/09/17 04:29:48;;;;;;;0.30;0.20;;;10.90;13.50;;;;;;5138366;27;20542;-75
2022/09/17 04:32:15;;;;;;;0.73;0.30;;;11.00;15.30;;;;;;5136963;27;20452;-75
2022/09/17 04:34:42;;;;;;;0.50;0.20;;;11.00;1.00;;;;;;5138556;27;20458;-75
2022/09/17 04:37:08;;;;;;;0.50;0.20;;;11.00;12.30;;;;;;5136244;27;20867;-75
2022/09/17 04:39:36;;;;;;;0.40;0.30;;;11.10;2.60;;;;;;5138176;27;20448;-75
2022/09/17 04:42:03;;;;;;;0.40;0.20;;;11.00;1.00;;;;;;5136122;27;20459;-74
2022/09/17 04:44:30;;;;;;;0.50;0.30;;;10.90;4.00;;;;;;5138967;27;20444;-73
2022/09/17 04:46:58;;;;;;;0.40;0.20;;;11.00;14.00;;;;;;5136649;27;20440;-73
2022/09/17 04:49:28;;;;;;;2.67;0.30;;;11.00;16.60;;;;;;5137793;27;20444;-74
2022/09/17 04:51:55;;;;;;;0.50;0.30;;;11.10;19.30;;;;;;5136029;27;20444;-76
2022/09/17 04:54:23;;;;;;;1.10;0.27;;;11.30;2.60;;;;;;5137764;27;20441;-75
2022/09/17 04:56:50;;;;;;;1.43;0.30;;;11.10;1.00;;;;;;5137114;27;20490;-75
2022/09/17 04:59:17;;;;;;;0.40;0.30;;;11.00;1.00;;;;;;5136840;27;20746;-75
2022/09/17 05:01:44;;;;;;;1.10;0.30;;;10.90;1.00;;;;;;5134809;27;20569;-75
2022/09/17 05:04:12;;;;;;;9.83;0.30;;;10.80;1.00;;;;;;5136510;28;20483;-76
2022/09/17 05:06:38;;;;;;;0.80;0.40;;;10.80;14.70;;;;;;5136499;27;20565;-76
2022/09/17 05:09:05;;;;;;;1.70;0.30;;;10.70;4.50;;;;;;5135218;28;20452;-76
2022/09/17 05:11:32;;;;;;;1.63;0.30;;;10.80;1.00;;;;;;5136480;28;20444;-76
2022/09/17 05:13:59;;;;;;;0.97;0.30;;;10.60;5.10;;;;;;5139363;27;20547;-75
2022/09/17 05:16:26;;;;;;;1.07;0.20;;;10.60;21.50;;;;;;5142427;27;20728;-75
2022/09/17 05:18:53;;;;;;;0.80;0.30;;;10.70;22.20;;;;;;5142411;27;20455;-76
2022/09/17 05:21:21;;;;;;;0.90;0.30;;;10.90;17.50;;;;;;5142873;27;20451;-76
2022/09/17 05:23:48;;;;;;;2.93;0.40;;;11.00;11.00;;;;;;5139657;27;20498;-76
2022/09/17 05:26:15;;;;;;;0.97;0.30;;;11.20;1.00;;;;;;5141682;27;20511;-74
2022/09/17 05:28:42;;;;;;;0.40;0.23;;;11.30;1.00;;;;;;5138742;27;20452;-75
2022/09/17 05:31:09;;;;;;;1.90;0.30;;;11.20;1.00;;;;;;5140864;27;20444;-76
2022/09/17 05:33:36;;;;;;;0.50;0.37;;;11.40;1.00;;;;;;5139546;27;20447;-75
2022/09/17 05:36:03;;;;;;;0.60;0.40;;;11.60;1.00;;;;;;5141071;27;20878;-75
2022/09/17 05:38:31;;;;;;;0.83;0.30;;;11.50;1.00;;;;;;5139265;27;20459;-75
2022/09/17 05:40:58;;;;;;;1.83;0.30;;;11.30;1.00;;;;;;5140881;27;20440;-75
2022/09/17 05:43:24;;;;;;;0.90;0.40;;;11.20;1.00;;;;;;5138188;27;20570;-75
2022/09/17 05:45:53;;;;;;;0.40;0.30;;;11.20;1.00;;;;;;5140384;27;20709;-75
2022/09/17 05:48:20;;;;;;;0.90;0.30;;;11.20;1.00;;;;;;5137320;27;20456;-75
2022/09/17 05:50:46;;;;;;;0.60;0.33;;;11.40;1.00;;;;;;5141475;27;20518;-75
2022/09/17 05:53:14;;;;;;;0.60;0.30;;;11.40;1.00;;;;;;5140957;27;20879;-75
2022/09/17 05:55:42;;;;;;;0.87;0.30;;;11.30;1.00;;;;;;5142237;27;20446;-75
2022/09/17 05:58:11;;;;;;;0.50;0.30;;;11.20;1.00;;;;;;5139880;27;20570;-75
2022/09/17 06:00:37;;;;;;;0.87;0.40;;;11.20;1.00;;;;;;5141576;27;20440;-75
2022/09/17 06:03:04;;;;;;;0.97;0.30;;;11.10;1.00;;;;;;5139030;27;20483;-74
2022/09/17 06:05:31;;;;;;;0.93;0.30;;;10.90;1.00;;;;;;5141906;27;20542;-75
2022/09/17 06:07:58;;;;;;;1.10;0.30;;;11.00;11.00;;;;;;5138050;27;20508;-75
2022/09/17 06:10:25;;;;;;;0.40;0.30;;;11.10;4.20;;;;;;5141154;27;20470;-73
2022/09/17 06:12:57;;;;;;;0.80;0.40;;;11.00;1.00;;;;;;5138476;27;20819;-74
2022/09/17 06:15:24;;;;;;;0.57;0.40;;;11.00;1.00;;;;;;5141042;27;20862;-73
2022/09/17 06:17:51;;;;;;;2.23;0.40;;;10.90;1.00;;;;;;5140441;27;20458;-74
2022/09/17 06:20:18;;;;;;;0.60;0.30;;;11.00;8.50;;;;;;5141246;27;20539;-74
2022/09/17 06:22:45;;;;;;;1.30;0.40;;;11.00;13.70;;;;;;5137785;27;20747;-73
2022/09/17 06:25:12;;;;;;;0.63;0.37;;;11.40;1.00;;;;;;5139728;27;20546;-72
2022/09/17 06:27:40;;;;;;;1.20;0.30;;;11.50;1.00;;;;;;5138808;27;20546;-74
2022/09/17 06:30:09;;;;;;;2.23;0.50;;;11.70;1.00;;;;;;5140300;27;20458;-73
2022/09/17 06:32:39;;;;;;;1.10;0.30;;;11.90;1.00;;;;;;5136676;27;20550;-73
2022/09/17 06:35:06;;;;;;;0.60;0.30;;;11.70;1.00;;;;;;5139658;27;20471;-73
2022/09/17 06:37:35;;;;;;;1.50;0.30;;;11.80;1.00;;;;;;5138261;27;20451;-73
2022/09/17 06:40:03;;;;;;;0.50;0.30;;;11.80;1.00;;;;;;5140181;27;20765;-72
2022/09/17 06:42:30;;;;;;;0.50;0.30;;;11.90;1.00;;;;;;5135998;27;20462;-72
2022/09/17 06:44:57;;;;;;;2.47;0.50;;;12.00;1.00;;;;;;5138849;27;20476;-73
2022/09/17 06:47:25;;;;;;;0.70;0.40;;;12.00;1.00;;;;;;5139094;27;20456;-72
2022/09/17 06:49:53;;;;;;;2.37;0.40;;;12.20;1.00;;;;;;5138876;27;20447;-73
2022/09/17 06:52:20;;;;;;;0.60;0.40;;;12.10;1.00;;;;;;5136150;27;20452;-73
2022/09/17 06:54:47;;;;;;;0.80;0.30;;;12.30;1.00;;;;;;5139782;27;20534;-73
2022/09/17 06:57:14;;;;;;;0.70;0.33;;;12.40;1.00;;;;;;5137970;27;20483;-72
2022/09/17 06:59:43;;;;;;;0.57;0.30;;;12.50;1.00;;;;;;5140004;27;20440;-73
2022/09/17 07:02:10;;;;;;;1.07;0.30;;;12.50;1.00;;;;;;5139978;27;20455;-73
2022/09/17 07:04:38;;;;;;;0.60;0.37;;;12.50;1.00;;;;;;5140087;27;20573;-74
2022/09/17 07:07:05;;;;;;;0.60;0.30;;;12.70;1.00;;;;;;5137074;27;20551;-74
2022/09/17 07:09:32;;;;;;;2.00;0.40;;;12.80;1.00;;;;;;5139965;27;20447;-73
2022/09/17 07:11:59;;;;;;;0.50;0.30;;;12.60;1.00;;;;;;5138890;27;20543;-73
2022/09/17 07:14:25;;;;;;;1.10;0.30;;;12.40;1.00;;;;;;5139669;27;20447;-74
2022/09/17 07:16:53;;;;;;;0.40;0.30;;;12.40;1.00;;;;;;5135670;27;20539;-74
2022/09/17 07:19:20;;;;;;;2.60;0.40;;;12.20;1.00;;;;;;5139934;27;20458;-74
2022/09/17 07:21:49;;;;;;;0.80;0.40;;;12.10;1.00;;;;;;5136220;27;20534;-73
2022/09/17 07:24:16;;;;;;;0.83;0.30;;;11.90;1.00;;;;;;5139271;27;20475;-74
2022/09/17 07:26:54;;;;;;;0.83;0.40;;;12.00;13.90;;;;;;5130207;27;20475;-74
2022/09/17 07:29:22;;;;;;;1.73;0.43;;;11.80;28.50;;;;;;5118127;28;20468;-73
2022/09/17 07:31:49;;;;;;;1.40;0.30;;;11.60;44.60;;;;;;5114999;28;20467;-74
2022/09/17 07:34:15;;;;;;;1.47;0.40;;;11.40;58.40;;;;;;5119538;28;20436;-73
2022/09/17 07:36:43;;;;;;;3.77;0.40;;;11.40;67.30;;;;;;5114729;28;20451;-73
2022/09/17 07:39:12;;;;;;;1.07;0.40;;;11.50;68.30;;;;;;5116848;28;20765;-73
2022/09/17 07:41:40;;;;;;;1.80;0.33;;;11.50;84.10;;;;;;5117752;28;20445;-72
2022/09/17 07:44:08;;;;;;;1.23;0.40;;;11.30;95.00;;;;;;5117695;28;20812;-73
2022/09/17 07:46:35;;;;;;;1.60;0.30;;;11.60;94.60;;;;;;5118263;28;20934;-73
2022/09/17 07:49:02;;;;;;;0.70;0.33;;;11.40;62.60;;;;;;5128663;27;20558;-73
2022/09/17 07:51:29;;;;;;;0.73;0.40;;;11.40;99.90;;;;;;5128991;27;20527;-73
2022/09/17 07:53:57;;;;;;;1.37;0.40;;;11.30;99.90;;;;;;5135466;27;20965;-73
2022/09/17 07:56:27;;;;;;;0.53;0.40;;;11.30;99.90;;;;;;5138363;27;20911;-72
2022/09/17 07:58:54;;;;;;;0.73;0.40;;;11.40;99.90;;;;;;5131850;27;20996;-73
2022/09/17 08:01:22;;;;;;;0.60;0.30;;;11.40;63.90;;;;;;5121015;28;20556;-73
2022/09/17 08:03:50;;;;;;;0.60;0.37;;;11.10;86.60;;;;;;5117381;28;20570;-75
2022/09/17 08:06:19;;;;;;;1.30;0.30;;;11.20;99.90;;;;;;5121852;27;20520;-75
2022/09/17 08:08:46;;;;;;;1.00;0.40;;;11.10;94.80;;;;;;5135323;27;20735;-72
2022/09/17 08:11:16;;;;;;;0.67;0.30;;;10.90;99.90;;;;;;5122096;27;20445;-76
2022/09/17 08:13:47;;;;;;;0.97;0.30;;;10.90;99.90;;;;;;5115575;28;20547;-76
2022/09/17 08:16:14;;;;;;;0.43;0.30;;;11.20;99.90;;;;;;5118109;27;20453;-73
2022/09/17 08:18:42;;;;;;;0.70;0.30;;;11.10;99.90;;;;;;5124865;27;20474;-74
2022/09/17 08:21:11;;;;;;;1.17;0.33;;;11.30;99.90;;;;;;5130014;27;20455;-74
2022/09/17 08:23:40;;;;;;;0.60;0.40;;;11.30;99.90;;;;;;5129416;27;20574;-74
2022/09/17 08:26:08;;;;;;;1.43;0.37;;;11.40;85.60;;;;;;5127985;27;20452;-74
2022/09/17 08:28:35;;;;;;;2.17;0.50;;;11.60;95.30;;;;;;5120941;27;20467;-74
2022/09/17 08:31:07;;;;;;;0.67;0.30;;;11.70;70.40;;;;;;5131080;27;20455;-74
2022/09/17 08:33:36;;;;;;;1.93;0.50;;;11.80;62.70;;;;;;5131523;27;20451;-74
2022/09/17 08:36:04;;;;;;;1.57;0.40;;;11.70;34.50;;;;;;5136138;27;20468;-74
2022/09/17 08:38:32;;;;;;;0.80;0.37;;;11.70;25.70;;;;;;5135200;27;21063;-73
2022/09/17 08:41:11;;;;;;;2.60;0.40;;;11.90;70.10;;;;;;5137419;27;20448;-74
2022/09/17 08:43:45;;;;;;;0.80;0.40;;;12.10;49.90;;;;;;5117017;28;20512;-73
2022/09/17 08:46:13;;;;;;;1.93;0.40;;;12.10;54.80;;;;;;5131519;27;20460;-72
2022/09/17 08:48:44;;;;;;;0.70;0.43;;;12.20;11.80;;;;;;5116093;27;20939;-72
2022/09/17 08:51:24;;;;;;;1.03;0.30;;;12.20;10.40;;;;;;5117580;28;20506;-73
2022/09/17 08:54:00;;;;;;;2.50;0.30;;;12.30;26.20;;;;;;5113215;28;20474;-72
2022/09/17 08:56:27;;;;;;;1.33;0.40;;;12.70;9.10;;;;;;5116783;28;20556;-73
2022/09/17 08:59:21;;;;;;;0.60;0.40;;;12.50;1.00;;;;;;5123352;27;20444;-73
2022/09/17 09:01:58;;;;;;;1.60;0.50;;;12.50;1.00;;;;;;5133888;27;20739;-73
2022/09/17 09:04:45;;;;;;;4.53;0.50;;;12.60;6.80;;;;;;5136663;28;20586;-73
2022/09/17 09:07:16;;;;;;;1.17;0.40;;;12.90;1.00;;;;;;5131877;28;20534;-72
2022/09/17 09:09:48;;;;;;;1.90;0.40;;;12.60;1.00;;;;;;5137029;28;20475;-74
2022/09/17 09:12:24;;;;;;;2.00;0.60;;;12.60;1.00;;;;;;5131690;28;20446;-75
2022/09/17 09:15:00;;;;;;;2.53;0.50;;;12.80;1.00;;;;;;5136355;28;20777;-74
2022/09/17 09:17:34;;;;;;;2.73;0.50;;;13.00;1.00;;;;;;5133068;27;20914;-74
2022/09/17 09:20:04;;;;;;;2.80;0.50;;;13.10;1.00;;;;;;5135849;28;20799;-74
2022/09/17 09:22:45;;;;;;;1.27;0.40;;;13.20;1.00;;;;;;5135729;27;20464;-74
2022/09/17 09:25:22;;;;;;;0.70;0.43;;;13.40;1.00;;;;;;5118473;28;20476;-74
2022/09/17 09:28:13;;;;;;;0.87;0.30;;;13.20;1.00;;;;;;5116959;28;20547;-74
2022/09/17 09:30:56;;;;;;;2.03;0.40;;;13.40;1.00;;;;;;5114647;28;20464;-74
2022/09/17 09:33:29;;;;;;;1.27;0.40;;;13.50;1.00;;;;;;5119924;28;20826;-75
2022/09/17 09:35:56;;;;;;;1.90;0.40;;;13.50;1.00;;;;;;5111839;28;20451;-74
2022/09/17 09:38:31;;;;;;;3.70;0.50;;;13.30;1.00;;;;;;5116951;28;20971;-75
2022/09/17 09:41:04;;;;;;;2.30;0.40;;;13.30;1.00;;;;;;5123829;27;20816;-75
2022/09/17 09:43:41;;;;;;;1.00;0.37;;;13.40;1.00;;;;;;5129625;27;20757;-75
2022/09/17 09:46:31;;;;;;;1.93;0.40;;;13.50;1.00;;;;;;5123880;27;20490;-75
2022/09/17 09:49:11;;;;;;;1.07;0.40;;;13.60;1.00;;;;;;5122169;28;20532;-76
2022/09/17 09:51:49;;;;;;;0.77;0.40;;;13.60;1.00;;;;;;5133853;27;20455;-74
2022/09/17 09:54:38;;;;;;;1.00;0.40;;;13.80;1.00;;;;;;5122966;28;20444;-75
2022/09/17 09:57:10;;;;;;;0.93;0.40;;;13.90;1.00;;;;;;5134691;27;20502;-75
2022/09/17 09:59:40;;;;;;;0.83;0.50;;;14.00;1.00;;;;;;5124483;28;20462;-74
2022/09/17 10:02:07;;;;;;;0.80;0.40;;;13.90;1.00;;;;;;5131286;27;20879;-74
2022/09/17 10:04:38;;;;;;;1.60;0.40;;;13.70;1.00;;;;;;5134550;27;20829;-74
2022/09/17 10:07:08;;;;;;;1.00;0.40;;;13.50;1.00;;;;;;5122381;27;20462;-74
2022/09/17 10:09:37;;;;;;;1.30;0.60;;;13.90;1.00;;;;;;5121723;27;20487;-74
2022/09/17 10:12:17;;;;;;;1.37;0.50;;;14.20;1.00;;;;;;5129289;27;20440;-73
2022/09/17 10:14:45;;;;;;;1.43;0.47;;;14.30;1.00;;;;;;5135588;27;20451;-73
2022/09/17 10:17:23;;;;;;;1.80;0.50;;;14.20;1.00;;;;;;5119437;27;20449;-73
2022/09/17 10:20:18;;;;;;;3.70;0.40;;;14.40;1.00;;;;;;5133504;27;20458;-73
2022/09/17 10:22:46;;;;;;;0.73;0.40;;;14.50;1.00;;;;;;5132777;27;20448;-73
2022/09/17 10:25:28;;;;;;;0.57;0.30;;;14.60;99.90;;;;;;5135157;27;21053;-75
2022/09/17 10:27:56;;;;;;;0.60;0.30;;;14.50;52.00;;;;;;5124135;27;20439;-75
2022/09/17 10:30:24;;;;;;;0.50;0.40;;;14.80;82.70;;;;;;5133678;27;20452;-74
2022/09/17 10:33:17;;;;;;;1.70;0.50;;;15.00;1.00;;;;;;5138288;27;20459;-74
2022/09/17 10:35:57;;;;;;;0.70;0.30;;;15.40;99.90;;;;;;5134144;27;20508;-75
2022/09/17 10:38:33;;;;;;;1.00;0.33;;;15.60;99.90;;;;;;5123425;27;20578;-74
2022/09/17 10:41:15;;;;;;;1.07;0.53;;;15.50;1.00;;;;;;5129548;27;20551;-74
2022/09/17 10:43:43;;;;;;;0.70;0.40;;;15.30;1.00;;;;;;5133096;27;20919;-74
2022/09/17 10:46:14;;;;;;;0.83;0.40;;;15.50;1.00;;;;;;5140293;27;20272;-75
2022/09/17 10:48:46;;;;;;;0.67;0.30;;;15.90;41.20;;;;;;5136554;27;20554;-73
2022/09/17 10:51:23;;;;;;;0.60;0.30;;;16.20;99.90;;;;;;5135873;27;20459;-73
2022/09/17 10:54:07;;;;;;;0.53;0.30;;;15.80;1.00;;;;;;5139644;27;20474;-73
2022/09/17 10:56:36;;;;;;;1.03;0.30;;;15.40;1.00;;;;;;5131416;27;20487;-72
2022/09/17 10:59:40;;;;;;;0.50;0.30;;;15.60;1.00;;;;;;5137921;27;20460;-74
2022/09/17 11:02:25;;;;;;;1.53;0.40;;;15.80;1.00;;;;;;5130407;27;20458;-73
2022/09/17 11:04:59;;;;;;;0.70;0.30;;;15.30;1.00;;;;;;5136114;27;20482;-74
2022/09/17 11:07:34;;;;;;;1.90;0.37;;;15.40;35.20;;;;;;5134650;27;20973;-73
2022/09/17 11:10:12;;;;;;;0.53;0.30;;;15.80;99.90;;;;;;5138854;27;20493;-73
2022/09/17 11:13:10;;;;;;;1.30;0.40;;;16.10;99.90;;;;;;5132731;27;20756;-74
2022/09/17 11:15:53;;;;;;;1.03;0.30;;;15.90;1.00;;;;;;5137060;27;20452;-74
2022/09/17 11:18:37;;;;;;;0.43;0.30;;;16.20;99.90;;;;;;5133112;27;20462;-74
2022/09/17 11:21:21;;;;;;;2.30;0.30;;;16.30;1.00;;;;;;5125643;27;20464;-76
2022/09/17 11:24:16;;;;;;;0.40;0.30;;;16.80;1.00;;;;;;5126488;27;20455;-75
2022/09/17 11:26:52;;;;;;;0.67;0.30;;;16.50;99.90;;;;;;5137495;27;20493;-73
2022/09/17 11:29:35;;;;;;;1.17;0.40;;;16.30;99.90;;;;;;5132110;27;20539;-75
2022/09/17 11:32:10;;;;;;;0.40;0.30;;;16.30;1.00;;;;;;5138493;27;20538;-74
2022/09/17 11:34:43;;;;;;;0.50;0.30;;;16.50;99.90;;;;;;5130151;27;20444;-74
2022/09/17 11:37:13;;;;;;;1.47;0.30;;;16.60;99.90;;;;;;5139040;27;20440;-75
2022/09/17 11:39:50;;;;;;;0.50;0.30;;;16.50;99.90;;;;;;5137438;27;20543;-75
2022/09/17 11:42:24;;;;;;;0.90;0.30;;;16.60;99.90;;;;;;5139698;27;20817;-74
2022/09/17 11:44:55;;;;;;;0.80;0.30;;;17.00;99.90;;;;;;5137049;27;20479;-74
2022/09/17 11:47:30;;;;;;;0.40;0.30;;;16.90;99.90;;;;;;5139542;27;20447;-74
2022/09/17 11:50:02;;;;;;;0.40;0.20;;;17.00;99.90;;;;;;5138530;27;20551;-75
2022/09/17 11:52:37;;;;;;;0.60;0.30;;;16.60;99.90;;;;;;5139567;27;20451;-75
2022/09/17 11:55:18;;;;;;;0.97;0.40;;;17.00;25.10;;;;;;5135069;27;20451;-74
2022/09/17 11:57:47;;;;;;;1.13;0.30;;;16.90;99.90;;;;;;5136488;27;20475;-75
2022/09/17 12:00:16;;;;;;;1.00;0.30;;;16.90;31.30;;;;;;5138120;27;20526;-74
2022/09/17 12:02:51;;;;;;;0.70;0.30;;;17.10;99.90;;;;;;5131870;27;20452;-74
2022/09/17 12:05:22;;;;;;;0.90;0.30;;;17.30;47.90;;;;;;5125155;27;20507;-74
2022/09/17 12:07:56;;;;;;;0.50;0.30;;;17.60;1.00;;;;;;5129462;27;20978;-74
2022/09/17 12:10:37;;;;;;;0.40;0.20;;;17.60;1.00;;;;;;5128966;27;20452;-74
2022/09/17 12:13:16;;;;;;;0.67;0.30;;;17.20;1.00;;;;;;5121044;27;20554;-74
2022/09/17 12:15:47;;;;;;;1.80;0.30;;;16.70;99.90;;;;;;5137938;27;20475;-74
2022/09/17 12:18:27;;;;;;;0.50;0.20;;;16.40;99.90;;;;;;5122930;27;20452;-74
2022/09/17 12:20:56;;;;;;;0.60;0.30;;;16.20;1.00;;;;;;5126506;27;20440;-74
2022/09/17 12:23:32;;;;;;;0.60;0.20;;;15.90;99.90;;;;;;5135158;27;20758;-73
2022/09/17 12:26:07;;;;;;;0.77;0.30;;;15.80;7.50;;;;;;5138704;27;20933;-75
2022/09/17 12:28:41;;;;;;;0.73;0.20;;;15.70;99.90;;;;;;5133248;27;20538;-75
2022/09/17 12:31:16;;;;;;;0.60;0.20;;;15.40;1.00;;;;;;5136344;27;20439;-75
2022/09/17 12:33:50;;;;;;;0.50;0.30;;;15.40;1.00;;;;;;5114556;27;20491;-74
2022/09/17 12:36:28;;;;;;;1.60;0.30;;;15.30;8.70;;;;;;5122480;27;20440;-74
2022/09/17 12:39:09;;;;;;;0.50;0.20;;;15.50;99.90;;;;;;5135072;27;20451;-76
2022/09/17 12:41:49;;;;;;;0.40;0.20;;;15.70;99.90;;;;;;5138146;27;20625;-75
2022/09/17 12:44:45;;;;;;;0.47;0.30;;;15.90;1.00;;;;;;5136397;27;20455;-76
2022/09/17 12:47:43;;;;;;;0.33;0.23;;;15.80;99.90;;;;;;5120526;27;20943;-74
2022/09/17 12:50:23;;;;;;;1.53;0.30;;;15.50;1.00;;;;;;5132036;27;20943;-75
2022/09/17 12:53:04;;;;;;;0.50;0.30;;;15.20;1.00;;;;;;5134845;27;20447;-72
2022/09/17 12:55:46;;;;;;;0.50;0.30;;;15.00;1.00;;;;;;5138087;27;20440;-75
2022/09/17 12:58:32;;;;;;;0.40;0.20;;;14.90;1.00;;;;;;5137797;27;20484;-74
2022/09/17 13:01:06;;;;;;;0.80;0.30;;;14.70;1.00;;;;;;5137263;27;20487;-75
2022/09/17 13:03:40;;;;;;;0.50;0.20;;;14.40;1.00;;;;;;5133841;27;20451;-74
2022/09/17 13:06:39;;;;;;;0.40;0.20;;;14.40;1.00;;;;;;5121772;28;20515;-75
2022/09/17 13:09:38;;;;;;;0.50;0.27;;;14.00;1.00;;;;;;5126707;28;20444;-75
2022/09/17 13:12:15;;;;;;;0.40;0.20;;;13.30;1.00;;;;;;5131918;28;20824;-74
2022/09/17 13:15:03;;;;;;;0.40;0.20;;;13.00;1.00;;;;;;5132953;28;20761;-75
2022/09/17 13:17:38;;;;;;;0.40;0.20;;;13.10;1.00;;;;;;5135771;28;20773;-73